createdAt,value
2023-01-17T05:16:55.536Z,52
2023-01-17T05:22:00.911Z,51.5
2023-01-17T05:27:07.380Z,50
2023-01-17T05:32:13.748Z,49.5
2023-01-17T05:37:20.330Z,48.5
2023-01-17T05:42:26.723Z,48
2023-01-17T05:47:33.321Z,47.5
2023-01-17T05:52:39.697Z,47
2023-01-17T05:57:46.249Z,47
2023-01-17T06:02:52.632Z,46.5
2023-01-17T06:07:59.199Z,46
2023-01-17T06:13:05.585Z,46
2023-01-17T06:18:12.186Z,46
2023-01-17T06:23:18.531Z,46
2023-01-17T06:28:25.146Z,45.5
2023-01-17T06:33:31.537Z,45.5
2023-01-17T06:38:38.136Z,45.5
2023-01-17T06:43:44.468Z,45
2023-01-17T06:48:51.039Z,45
2023-01-17T06:53:57.419Z,45
2023-01-17T06:59:02.834Z,45
2023-01-17T07:04:09.272Z,45
2023-01-17T07:09:15.874Z,45
2023-01-17T07:14:22.262Z,45
2023-01-17T07:24:35.296Z,40
2023-01-17T07:29:41.965Z,39.5
2023-01-17T07:34:48.355Z,39.5
2023-01-17T07:39:55.024Z,40
2023-01-17T07:45:01.391Z,40
2023-01-17T07:50:08.074Z,40.5
2023-01-17T07:55:14.430Z,41
2023-01-17T08:00:21.221Z,41
2023-01-17T08:05:27.502Z,40.5
2023-01-17T08:10:34.198Z,40
2023-01-17T08:15:40.546Z,40.5
2023-01-17T08:20:47.265Z,40.5
2023-01-17T08:25:53.578Z,41
2023-01-17T08:31:00.275Z,41.5
2023-01-17T08:36:06.635Z,42
2023-01-17T08:41:13.284Z,42
2023-01-17T08:46:19.842Z,42.5
